Time;durP1;ratioP1;P1;durP2;ratioP2;P2;SDS_P1;SDS_P2;PMS_P1;PMS_P2;Temp;Humidity;BMP_temperature;BMP_pressure;BME280_temperature;BME280_humidity;BME280_pressure;Samples;Min_cycle;Max_cycle;Signal;HPM_P1;HPM_P2
2021/11/05 00:03:41;;;;;;;0.30;0.20;;;20.60;32.70;21.00;93722.00;;;;10393738;28;46951;-59
2021/11/05 00:08:42;;;;;;;0.25;0.10;;;20.60;32.80;21.00;93716.00;;;;10394909;28;45306;-60
2021/11/05 00:13:42;;;;;;;0.32;0.20;;;20.60;32.80;21.00;93720.00;;;;10394420;28;45253;-59
2021/11/05 00:18:43;;;;;;;0.10;0.10;;;20.60;32.80;21.00;93713.00;;;;10395448;28;45562;-59
2021/11/05 00:23:44;;;;;;;0.10;0.10;;;20.60;32.70;21.00;93739.00;;;;10394163;28;45213;-60
2021/11/05 00:28:44;;;;;;;0.13;0.13;;;20.50;32.70;21.00;93729.00;;;;10394089;28;46325;-58
2021/11/05 00:33:45;;;;;;;0.50;0.22;;;20.50;32.70;21.00;93734.00;;;;10393845;28;46406;-58
2021/11/05 00:38:46;;;;;;;0.10;0.10;;;20.50;32.80;21.00;93737.00;;;;10393900;28;45436;-60
2021/11/05 00:43:48;;;;;;;0.17;0.10;;;20.50;32.80;21.00;93743.00;;;;10394108;28;45364;-59
2021/11/05 00:48:48;;;;;;;0.35;0.15;;;20.50;32.70;20.90;93735.00;;;;10393602;28;45554;-60
2021/11/05 00:53:49;;;;;;;1.25;0.20;;;20.50;32.80;21.00;93741.00;;;;10394452;28;45660;-60
2021/11/05 00:58:50;;;;;;;0.15;0.15;;;20.50;32.90;20.90;93742.00;;;;10393587;28;46720;-59
2021/11/05 01:03:51;;;;;;;0.10;0.10;;;20.50;32.80;20.90;93736.00;;;;10392722;28;46507;-59
2021/11/05 01:08:52;;;;;;;0.57;0.20;;;20.50;32.80;20.90;93746.00;;;;10393981;28;45189;-60
2021/11/05 01:13:53;;;;;;;0.30;0.20;;;20.40;32.80;20.90;93763.00;;;;10393427;28;45157;-58
2021/11/05 01:18:53;;;;;;;0.20;0.20;;;20.40;32.80;20.90;93759.00;;;;10391917;28;45402;-59
2021/11/05 01:23:54;;;;;;;0.10;0.10;;;20.40;32.90;20.90;93753.00;;;;10433975;28;45374;-59
2021/11/05 01:28:55;;;;;;;0.20;0.08;;;20.40;32.90;20.90;93758.00;;;;10434478;28;45194;-58
2021/11/05 01:33:56;;;;;;;0.47;0.20;;;20.40;32.80;20.90;93768.00;;;;10432841;28;46291;-60
2021/11/05 01:38:56;;;;;;;0.28;0.20;;;20.40;32.80;20.90;93760.00;;;;10431784;28;46388;-59
2021/11/05 01:43:57;;;;;;;0.38;0.20;;;20.40;32.80;20.90;93770.00;;;;10433236;28;45154;-58
2021/11/05 01:48:58;;;;;;;0.28;0.17;;;20.40;32.90;20.90;93761.00;;;;10415796;28;45559;-59
2021/11/05 01:53:59;;;;;;;0.35;0.20;;;20.40;32.80;20.90;93772.00;;;;10390282;28;47208;-59
2021/11/05 01:58:59;;;;;;;0.30;0.20;;;20.40;32.80;20.80;93770.00;;;;10387726;28;46998;-59
2021/11/05 02:04:01;;;;;;;0.20;0.13;;;20.40;32.80;20.80;93773.00;;;;10385407;28;48359;-59
2021/11/05 02:09:02;;;;;;;0.20;0.10;;;20.40;32.90;20.80;93776.00;;;;10389727;28;47384;-59
2021/11/05 02:14:05;;;;;;;0.40;0.20;;;20.40;32.90;20.80;93776.00;;;;10391354;28;45483;-59
2021/11/05 02:19:11;;;;;;;0.52;0.20;;;20.40;32.80;20.80;93780.00;;;;10390222;28;47484;-59
2021/11/05 02:24:13;;;;;;;0.20;0.20;;;20.40;32.90;20.80;93779.00;;;;10432116;28;46407;-60
2021/11/05 02:29:14;;;;;;;0.35;0.20;;;20.40;32.90;20.80;93768.00;;;;10431171;28;46495;-59
2021/11/05 02:34:15;;;;;;;0.38;0.15;;;20.40;32.90;20.80;93774.00;;;;10431217;28;45310;-59
2021/11/05 02:39:16;;;;;;;0.38;0.13;;;20.40;32.90;20.80;93789.00;;;;10430836;28;46617;-59
2021/11/05 02:44:17;;;;;;;0.10;0.08;;;20.30;32.90;20.80;93796.00;;;;10430700;28;46929;-59
2021/11/05 02:49:18;;;;;;;0.28;0.15;;;20.30;32.90;20.80;93792.00;;;;10411823;28;46890;-59
2021/11/05 02:54:18;;;;;;;0.17;0.13;;;20.30;32.90;20.80;93803.00;;;;10389127;28;48318;-59
2021/11/05 02:59:19;;;;;;;0.40;0.20;;;20.30;32.90;20.80;93798.00;;;;10393467;28;45567;-59
2021/11/05 03:04:23;;;;;;;0.25;0.10;;;20.30;32.90;20.80;93791.00;;;;10397068;28;46704;-59
2021/11/05 03:09:23;;;;;;;0.08;0.08;;;20.30;32.90;20.70;93800.00;;;;10395487;28;45399;-59
2021/11/05 03:14:24;;;;;;;0.43;0.10;;;20.30;32.90;20.80;93828.00;;;;10395641;28;45384;-59
2021/11/05 03:19:25;;;;;;;0.05;0.05;;;20.30;32.90;20.70;93821.00;;;;10398357;28;45229;-59
2021/11/05 03:24:26;;;;;;;0.05;0.05;;;20.30;32.90;20.70;93826.00;;;;10437080;28;45326;-59
2021/11/05 03:29:27;;;;;;;0.05;0.05;;;20.30;32.90;20.70;93833.00;;;;10437050;28;45790;-59
2021/11/05 03:34:28;;;;;;;0.52;0.10;;;20.30;32.80;20.70;93841.00;;;;10435838;28;47912;-59
2021/11/05 03:39:29;;;;;;;0.20;0.10;;;20.30;32.90;20.70;93848.00;;;;10437904;28;45308;-59
2021/11/05 03:44:32;;;;;;;0.20;0.00;;;20.30;32.90;20.70;93850.00;;;;10437317;28;45486;-60
2021/11/05 03:49:32;;;;;;;0.08;0.08;;;20.30;32.90;20.70;93854.00;;;;10414970;28;48206;-59
2021/11/05 03:54:33;;;;;;;0.22;0.10;;;20.30;33.00;20.70;93865.00;;;;10394176;28;46250;-59
2021/11/05 03:59:34;;;;;;;0.20;0.10;;;20.30;32.80;20.70;93874.00;;;;10394361;28;46243;-59
2021/11/05 04:04:34;;;;;;;0.30;0.10;;;20.20;32.80;20.70;93891.00;;;;10394839;28;45463;-60
2021/11/05 04:09:35;;;;;;;0.05;0.00;;;20.30;32.90;20.70;93890.00;;;;10394521;28;46323;-60
2021/11/05 04:14:36;;;;;;;0.25;0.10;;;20.30;32.90;20.70;93898.00;;;;10395702;28;46299;-60
2021/11/05 04:19:36;;;;;;;0.20;0.10;;;20.20;32.80;20.70;93888.00;;;;10394321;28;45348;-58
2021/11/05 04:24:37;;;;;;;0.10;0.10;;;20.30;32.90;20.70;93888.00;;;;10394023;28;47061;-60
2021/11/05 04:29:38;;;;;;;0.13;0.10;;;20.30;33.00;20.70;93875.00;;;;10394303;28;45999;-59
2021/11/05 04:34:38;;;;;;;0.15;0.10;;;20.30;32.90;20.70;93876.00;;;;10393895;28;45304;-58
2021/11/05 04:39:39;;;;;;;0.03;0.00;;;20.30;32.90;20.70;93884.00;;;;10394803;28;45197;-59
2021/11/05 04:44:40;;;;;;;0.00;0.00;;;20.30;33.00;20.70;93879.00;;;;10394135;28;45622;-59
2021/11/05 04:49:40;;;;;;;0.38;0.08;;;20.20;32.90;20.70;93888.00;;;;10395046;28;45465;-58
2021/11/05 04:54:41;;;;;;;0.15;0.00;;;20.20;32.90;20.70;93891.00;;;;10394527;28;46276;-58
2021/11/05 04:59:42;;;;;;;0.10;0.10;;;20.20;33.00;20.70;93899.00;;;;10394720;28;45494;-58
2021/11/05 05:04:45;;;;;;;0.00;0.00;;;20.20;33.00;20.70;93901.00;;;;10393119;28;45438;-60
2021/11/05 05:09:46;;;;;;;0.30;0.00;;;20.20;32.90;20.80;93923.00;;;;10392927;28;45144;-59
2021/11/05 05:14:47;;;;;;;0.00;0.00;;;20.30;33.00;20.80;93924.00;;;;10375967;28;48188;-59
2021/11/05 05:19:47;;;;;;;0.00;0.00;;;20.30;33.10;20.80;93931.00;;;;10392264;28;47041;-59
2021/11/05 05:24:48;;;;;;;0.05;0.00;;;20.40;33.10;20.90;93939.00;;;;10391800;28;47498;-59
2021/11/05 05:29:50;;;;;;;0.10;0.00;;;20.40;33.10;20.90;93938.00;;;;10392134;28;46434;-60
2021/11/05 05:34:51;;;;;;;0.10;0.08;;;20.40;33.10;20.90;93945.00;;;;10391987;28;45234;-60
2021/11/05 05:39:51;;;;;;;0.00;0.00;;;20.40;33.00;20.90;93939.00;;;;10390851;28;47499;-59
2021/11/05 05:44:52;;;;;;;0.00;0.00;;;20.40;33.00;20.90;93953.00;;;;10390652;28;47042;-59
2021/11/05 05:49:53;;;;;;;0.15;0.00;;;20.40;32.90;20.90;93951.00;;;;10414940;28;45323;-60
2021/11/05 05:54:54;;;;;;;0.00;0.00;;;20.50;33.00;20.90;93964.00;;;;10433586;28;45634;-59
2021/11/05 05:59:54;;;;;;;0.00;0.00;;;20.50;33.00;20.90;93967.00;;;;10432273;28;45157;-59
2021/11/05 06:04:55;;;;;;;0.20;0.10;;;20.50;33.00;20.90;93965.00;;;;10431914;28;45470;-60
2021/11/05 06:09:56;;;;;;;0.05;0.00;;;20.50;32.90;20.90;93979.00;;;;10431441;28;46891;-60
2021/11/05 06:14:56;;;;;;;0.03;0.03;;;20.40;32.80;20.90;93980.00;;;;10432812;28;46662;-60
2021/11/05 06:19:57;;;;;;;0.17;0.00;;;20.40;32.90;20.80;93992.00;;;;10423999;28;45938;-60
2021/11/05 06:24:59;;;;;;;0.00;0.00;;;20.40;32.70;20.90;93993.00;;;;10389813;28;46901;-60
2021/11/05 06:30:00;;;;;;;0.10;0.08;;;20.40;32.90;20.90;93985.00;;;;10390036;28;45185;-59
2021/11/05 06:35:01;;;;;;;0.25;0.10;;;20.40;32.80;20.90;94010.00;;;;10393302;28;46978;-60
2021/11/05 06:40:03;;;;;;;0.00;0.00;;;20.40;32.80;20.90;94015.00;;;;10396942;28;46018;-59
2021/11/05 06:45:05;;;;;;;0.00;0.00;;;20.40;32.80;20.90;94038.00;;;;10396738;28;46204;-59
2021/11/05 06:50:08;;;;;;;0.00;0.00;;;20.50;32.80;20.90;94032.00;;;;10421858;28;47873;-59
2021/11/05 06:55:09;;;;;;;0.30;0.10;;;20.50;32.80;20.90;94062.00;;;;10437800;28;45317;-60
2021/11/05 07:00:14;;;;;;;0.08;0.03;;;20.50;32.80;20.90;94060.00;;;;10437566;28;45226;-60
2021/11/05 07:05:15;;;;;;;0.32;0.10;;;20.50;32.80;20.90;94072.00;;;;10437160;28;46497;-58
2021/11/05 07:10:16;;;;;;;0.05;0.00;;;20.50;32.60;20.90;94079.00;;;;10438509;28;45129;-59
2021/11/05 07:15:19;;;;;;;0.00;0.00;;;20.50;32.80;20.90;94098.00;;;;10420280;28;46929;-59
2021/11/05 07:20:20;;;;;;;0.08;0.08;;;20.40;32.70;20.90;94101.00;;;;10426020;28;47059;-58
2021/11/05 07:25:21;;;;;;;0.10;0.10;;;20.40;32.70;20.70;94110.00;;;;10396898;28;45338;-63
2021/11/05 07:30:22;;;;;;;0.20;0.10;;;20.30;33.00;20.80;94115.00;;;;10395012;28;47398;-59
2021/11/05 07:35:23;;;;;;;0.40;0.10;;;20.30;33.00;20.80;94121.00;;;;10394698;28;45637;-61
2021/11/05 07:40:24;;;;;;;0.30;0.10;;;20.30;32.80;20.80;94132.00;;;;10396163;28;45440;-58
2021/11/05 07:45:25;;;;;;;0.20;0.10;;;20.40;32.70;20.80;94133.00;;;;10393770;28;45210;-59
2021/11/05 07:50:33;;;;;;;0.20;0.00;;;20.40;32.70;20.80;94150.00;;;;10422119;28;46197;-58
2021/11/05 07:55:34;;;;;;;0.10;0.10;;;20.40;32.70;20.80;94147.00;;;;10436782;28;45506;-58
2021/11/05 08:00:35;;;;;;;0.00;0.00;;;20.40;32.70;20.80;94162.00;;;;10436101;28;45241;-60
2021/11/05 08:05:36;;;;;;;0.03;0.03;;;20.40;32.70;20.80;94171.00;;;;10436363;28;45570;-58
2021/11/05 08:10:37;;;;;;;0.00;0.00;;;20.40;32.80;20.70;94189.00;;;;10435270;28;45358;-57
2021/11/05 08:15:38;;;;;;;0.00;0.00;;;20.30;32.80;20.70;94181.00;;;;10436233;28;45484;-58
2021/11/05 08:20:38;;;;;;;0.68;0.22;;;20.30;32.70;20.70;94207.00;;;;10422765;28;45261;-61
2021/11/05 08:25:40;;;;;;;0.35;0.10;;;20.30;32.20;20.70;94207.00;;;;10395242;28;45706;-64
2021/11/05 08:30:42;;;;;;;0.10;0.05;;;20.30;32.30;20.70;94215.00;;;;10393874;28;47257;-62
2021/11/05 08:35:48;;;;;;;0.00;0.00;;;20.30;32.30;20.80;94215.00;;;;10393615;28;45627;-59
2021/11/05 08:40:51;;;;;;;;;;;20.30;32.60;20.80;94209.00;;;;10392638;28;45421;-58
2021/11/05 08:45:52;;;;;;;0.40;0.10;;;20.40;32.60;20.80;94229.00;;;;10392938;28;45295;-57
2021/11/05 08:50:53;;;;;;;0.52;0.20;;;20.40;32.60;20.80;94229.00;;;;10424625;28;45396;-58
2021/11/05 08:55:54;;;;;;;0.10;0.10;;;20.40;32.60;20.80;94236.00;;;;10433185;28;45271;-58
2021/11/05 09:00:54;;;;;;;0.38;0.10;;;20.40;32.70;20.80;94234.00;;;;10434686;28;45286;-58
2021/11/05 09:05:55;;;;;;;0.35;0.20;;;20.40;32.70;20.80;94231.00;;;;10433106;28;47845;-59
2021/11/05 09:11:01;;;;;;;0.45;0.10;;;20.40;32.80;20.80;94236.00;;;;10432731;28;46652;-59
2021/11/05 09:16:03;;;;;;;0.00;0.00;;;20.40;33.50;20.80;94226.00;;;;10433136;28;45348;-60
2021/11/05 09:21:04;;;;;;;0.30;0.10;;;20.40;32.70;20.70;94251.00;;;;10415193;28;46356;-58
2021/11/05 09:26:05;;;;;;;0.10;0.10;;;20.40;32.80;20.60;94260.00;;;;10391254;28;45431;-58
2021/11/05 09:31:06;;;;;;;0.03;0.00;;;20.20;32.70;20.60;94273.00;;;;10391350;28;45855;-59
2021/11/05 09:36:06;;;;;;;1.17;0.10;;;20.20;32.70;20.70;94285.00;;;;10391770;28;47195;-58
2021/11/05 09:41:07;;;;;;;0.10;0.10;;;20.20;32.60;20.70;94278.00;;;;10391394;28;47102;-59
2021/11/05 09:46:09;;;;;;;0.10;0.00;;;20.20;32.70;20.70;94290.00;;;;10391140;28;45377;-60
2021/11/05 09:51:12;;;;;;;0.13;0.13;;;20.30;32.90;20.80;94308.00;;;;10426071;28;45420;-60
2021/11/05 09:56:14;;;;;;;0.10;0.10;;;20.30;32.90;20.80;94298.00;;;;10433572;28;45616;-59
2021/11/05 10:01:14;;;;;;;0.08;0.00;;;20.30;32.90;20.80;94312.00;;;;10432387;28;45876;-60
2021/11/05 10:06:19;;;;;;;0.10;0.10;;;20.30;33.00;20.80;94310.00;;;;10379329;28;47036;-59
2021/11/05 10:11:29;;;;;;;0.10;0.10;;;20.30;33.00;20.80;94323.00;;;;10396910;28;45436;-59
2021/11/05 10:16:31;;;;;;;0.10;0.10;;;20.40;33.10;20.80;94322.00;;;;10399387;28;46158;-59
2021/11/05 10:21:45;;;;;;;0.13;0.10;;;20.40;33.10;20.80;94313.00;;;;10420128;28;45228;-58
2021/11/05 10:26:48;;;;;;;0.52;0.20;;;20.30;33.10;20.80;94319.00;;;;10416142;28;45409;-59
2021/11/05 10:32:01;;;;;;;0.15;0.15;;;20.40;33.10;20.80;94307.00;;;;10379334;28;45460;-59
2021/11/05 10:37:05;;;;;;;0.88;0.60;;;20.30;33.10;20.70;94321.00;;;;10377485;28;45349;-58
2021/11/05 10:42:09;;;;;;;0.90;0.63;;;20.30;33.10;20.80;94327.00;;;;10398692;28;45447;-59
2021/11/05 10:47:10;;;;;;;0.82;0.60;;;20.30;33.30;20.80;94330.00;;;;10397177;28;45298;-60
2021/11/05 10:52:20;;;;;;;0.80;0.60;;;20.40;33.30;20.80;94320.00;;;;10396506;28;45189;-59
2021/11/05 10:57:48;;;;;;;1.50;0.60;;;20.40;33.40;20.80;94337.00;;;;10397823;28;46587;-60
2021/11/05 11:02:49;;;;;;;5.80;1.63;;;20.40;33.50;20.80;94333.00;;;;10396656;28;45345;-58
2021/11/05 11:07:49;;;;;;;3.00;1.52;;;20.40;33.70;20.80;94342.00;;;;10397049;28;45543;-60
2021/11/05 11:12:50;;;;;;;4.85;2.10;;;20.40;33.70;20.70;94338.00;;;;10396951;28;45420;-61
2021/11/05 11:17:54;;;;;;;7.90;3.30;;;20.30;33.60;20.70;94347.00;;;;10395428;28;46610;-60
2021/11/05 11:22:56;;;;;;;8.15;3.30;;;20.30;33.60;20.70;94333.00;;;;10427475;28;45253;-60
2021/11/05 11:27:57;;;;;;;7.53;3.08;;;20.30;33.70;20.80;94336.00;;;;10436558;28;46148;-59
2021/11/05 11:32:58;;;;;;;6.63;2.50;;;20.30;34.20;20.80;94336.00;;;;10436865;28;45347;-60
2021/11/05 11:38:00;;;;;;;6.15;2.45;;;20.40;34.40;20.80;94344.00;;;;10436547;28;45189;-60
2021/11/05 11:43:01;;;;;;;4.32;2.00;;;20.40;34.70;20.80;94342.00;;;;10408732;28;45463;-59
2021/11/05 11:48:01;;;;;;;3.90;1.85;;;20.40;35.00;20.80;94334.00;;;;10402598;28;46246;-60
2021/11/05 11:53:09;;;;;;;5.90;1.70;;;20.30;35.20;20.80;94345.00;;;;10436004;28;45244;-61
2021/11/05 11:58:17;;;;;;;5.00;1.48;;;20.40;35.40;20.80;94361.00;;;;10435534;28;45348;-61
2021/11/05 12:03:31;;;;;;;2.65;1.20;;;20.40;35.60;20.80;94363.00;;;;10435793;28;47891;-59
2021/11/05 12:08:45;;;;;;;2.22;1.20;;;20.40;35.90;20.70;94360.00;;;;10436751;28;46416;-59
2021/11/05 12:13:55;;;;;;;1.98;1.10;;;20.30;36.30;20.70;94363.00;;;;10442985;22;46001;-60
2021/11/05 12:24:15;;;;;;;3.25;1.95;;;20.30;36.40;20.70;94364.00;;;;10406184;28;45146;-62
2021/11/05 12:29:34;;;;;;;5.75;1.58;;;20.30;36.50;20.70;94366.00;;;;10392915;28;46862;-61
2021/11/05 12:34:35;;;;;;;3.10;1.45;;;20.30;36.70;20.70;94354.00;;;;10394359;28;45426;-60
2021/11/05 12:39:40;;;;;;;2.83;1.25;;;20.30;36.90;20.80;94361.00;;;;10394522;28;45241;-61
2021/11/05 12:45:01;;;;;;;1.25;0.88;;;20.30;36.50;20.80;94367.00;;;;10393271;28;45240;-60
2021/11/05 12:50:02;;;;;;;2.00;1.00;;;20.40;36.90;20.80;94375.00;;;;10410473;28;45883;-61
2021/11/05 12:55:04;;;;;;;1.33;0.80;;;20.40;37.00;20.80;94380.00;;;;10431129;28;47571;-60
2021/11/05 13:00:10;;;;;;;1.55;1.10;;;20.40;37.30;20.80;94384.00;;;;10434189;28;46195;-60
2021/11/05 13:05:11;;;;;;;1.48;0.90;;;20.40;37.60;20.80;94381.00;;;;10434055;28;45966;-61
2021/11/05 13:10:26;;;;;;;2.42;0.80;;;20.40;37.80;20.80;94398.00;;;;10418672;28;45400;-60
2021/11/05 13:15:32;;;;;;;2.10;0.90;;;20.40;37.90;20.80;94394.00;;;;10392597;28;45241;-61
2021/11/05 13:20:46;;;;;;;;;;;20.40;38.40;20.80;94403.00;;;;10393338;28;46292;-59
2021/11/05 13:25:49;;;;;;;1.20;0.77;;;20.40;38.50;20.70;94403.00;;;;10392787;28;45276;-62
2021/11/05 13:31:02;;;;;;;0.60;0.50;;;20.40;38.00;20.70;94394.00;;;;10392715;28;46039;-59
2021/11/05 13:36:12;;;;;;;1.30;0.80;;;20.30;38.60;20.70;94407.00;;;;10391209;28;46363;-62
2021/11/05 13:41:26;;;;;;;2.67;0.75;;;20.30;38.70;20.70;94419.00;;;;10393330;28;46458;-62
2021/11/05 13:46:30;;;;;;;13.82;1.33;;;20.30;38.50;20.50;94398.00;;;;10391381;28;47172;-58
2021/11/05 13:51:37;;;;;;;10.77;1.45;;;20.20;37.70;20.60;94427.00;;;;10391363;28;46583;-60
2021/11/05 13:56:43;;;;;;;9.88;0.95;;;20.20;37.80;20.70;94433.00;;;;10391008;28;47312;-62
2021/11/05 14:01:46;;;;;;;5.13;0.90;;;20.20;37.70;20.60;94438.00;;;;10392763;28;45182;-61
2021/11/05 14:06:50;;;;;;;5.53;0.52;;;20.20;37.50;20.60;94441.00;;;;10391341;28;45346;-61
2021/11/05 14:11:53;;;;;;;3.05;0.47;;;20.20;37.40;20.60;94439.00;;;;10390541;28;46252;-60
2021/11/05 14:16:58;;;;;;;3.10;0.47;;;20.20;37.40;20.70;94438.00;;;;10391191;28;46948;-61
2021/11/05 14:22:10;;;;;;;3.33;0.40;;;20.20;37.20;20.70;94446.00;;;;10392048;28;45405;-61
2021/11/05 14:27:23;;;;;;;3.58;0.60;;;20.30;37.40;20.70;94457.00;;;;10391156;28;46277;-62
2021/11/05 14:32:38;;;;;;;2.08;0.75;;;20.30;37.50;20.80;94462.00;;;;10390492;28;45341;-59
2021/11/05 14:37:54;;;;;;;1.90;0.50;;;20.30;37.60;20.70;94454.00;;;;10391212;28;47074;-59
2021/11/05 14:43:05;;;;;;;7.53;0.80;;;20.30;37.40;20.60;94458.00;;;;10390608;28;46659;-59
2021/11/05 14:48:25;;;;;;;2.60;0.70;;;20.20;36.40;20.60;94460.00;;;;10390939;28;45431;-62
2021/11/05 14:53:37;;;;;;;3.22;1.00;;;20.20;36.50;20.50;94476.00;;;;10390273;28;45156;-60
2021/11/05 14:58:41;;;;;;;3.22;0.82;;;20.20;36.60;20.50;94480.00;;;;10396843;28;45178;-59
2021/11/05 15:03:45;;;;;;;3.50;0.90;;;20.10;36.90;20.50;94474.00;;;;10398199;28;46699;-61
2021/11/05 15:08:49;;;;;;;3.80;0.82;;;20.10;36.50;20.50;94461.00;;;;10396799;28;45462;-61
2021/11/05 15:13:54;;;;;;;1.15;0.70;;;20.10;37.00;20.50;94472.00;;;;10391314;28;45201;-62
2021/11/05 15:18:58;;;;;;;2.55;0.88;;;20.10;36.90;20.50;94490.00;;;;10393912;28;45391;-62
2021/11/05 15:24:03;;;;;;;8.95;3.20;;;20.10;36.80;20.50;94481.00;;;;10395539;28;46104;-62
2021/11/05 15:29:03;;;;;;;10.55;3.30;;;20.10;36.70;20.50;94488.00;;;;10396047;28;45308;-62
2021/11/05 15:34:04;;;;;;;7.15;2.40;;;20.10;36.60;20.50;94489.00;;;;10378572;28;46896;-61
2021/11/05 15:39:05;;;;;;;4.28;1.90;;;20.10;36.40;20.50;94500.00;;;;10396995;28;45642;-61
2021/11/05 15:44:05;;;;;;;3.60;1.60;;;20.10;36.30;20.50;94503.00;;;;10392492;28;46390;-65
2021/11/05 15:49:06;;;;;;;3.50;1.63;;;20.10;36.30;20.50;94498.00;;;;10392121;28;45283;-62
2021/11/05 15:54:08;;;;;;;2.65;1.23;;;20.10;36.20;20.50;94524.00;;;;10391242;28;45184;-62
2021/11/05 15:59:09;;;;;;;2.00;1.35;;;20.10;36.00;20.40;94517.00;;;;10392632;28;46170;-62
2021/11/05 16:04:09;;;;;;;3.65;1.20;;;20.10;36.00;20.40;94535.00;;;;10394875;28;45137;-61
2021/11/05 16:09:10;;;;;;;3.08;1.50;;;20.10;36.00;20.40;94527.00;;;;10395979;28;45367;-63
2021/11/05 16:14:11;;;;;;;4.05;1.92;;;20.10;36.00;20.50;94538.00;;;;10395446;28;46005;-61
2021/11/05 16:19:12;;;;;;;5.35;2.70;;;20.10;36.00;20.40;94544.00;;;;10394390;28;45221;-62
2021/11/05 16:24:13;;;;;;;8.18;3.80;;;20.10;36.00;20.40;94549.00;;;;10394256;28;45864;-63
2021/11/05 16:29:14;;;;;;;14.43;6.13;;;20.00;35.90;20.40;94557.00;;;;10395817;28;46426;-62
2021/11/05 16:34:15;;;;;;;17.00;5.68;;;20.10;35.80;20.40;94556.00;;;;10394319;28;45433;-62
2021/11/05 16:39:16;;;;;;;18.77;8.10;;;20.00;35.80;20.50;94536.00;;;;10376676;28;47294;-63
2021/11/05 16:44:17;;;;;;;21.02;9.25;;;20.10;35.60;20.50;94561.00;;;;10430812;28;45270;-62
2021/11/05 16:49:19;;;;;;;15.65;7.55;;;20.10;35.70;20.50;94564.00;;;;10436010;28;45232;-62
2021/11/05 16:54:21;;;;;;;9.10;5.10;;;20.10;35.70;20.50;94583.00;;;;10434612;28;46487;-61
2021/11/05 16:59:23;;;;;;;7.93;4.38;;;20.10;35.60;20.50;94576.00;;;;10434350;28;47621;-60
2021/11/05 17:04:23;;;;;;;8.38;4.53;;;20.10;35.40;20.50;94581.00;;;;10441427;28;46986;-61
2021/11/05 17:09:24;;;;;;;6.75;4.10;;;20.10;35.20;20.50;94601.00;;;;10462706;28;45177;-60
2021/11/05 17:14:25;;;;;;;5.63;3.70;;;20.10;35.00;20.50;94583.00;;;;10476356;28;45206;-63
2021/11/05 17:19:25;;;;;;;4.43;2.90;;;20.10;35.00;20.50;94591.00;;;;10457505;28;46651;-62
2021/11/05 17:24:26;;;;;;;4.53;3.05;;;20.10;34.70;20.50;94609.00;;;;10393108;28;45453;-61
2021/11/05 17:29:28;;;;;;;6.35;3.97;;;20.20;34.50;20.50;94610.00;;;;10427556;28;46337;-61
2021/11/05 17:34:29;;;;;;;6.88;4.50;;;20.10;34.30;20.50;94611.00;;;;10463022;28;47557;-61
2021/11/05 17:39:29;;;;;;;5.95;3.95;;;20.10;34.60;20.50;94610.00;;;;10450649;28;47096;-62
2021/11/05 17:44:30;;;;;;;7.25;4.43;;;20.10;34.20;20.50;94627.00;;;;10434692;28;45136;-62
2021/11/05 17:49:31;;;;;;;9.02;4.40;;;20.10;33.80;20.40;94620.00;;;;10433303;28;45165;-62
2021/11/05 17:54:32;;;;;;;7.07;4.38;;;20.10;33.60;20.50;94634.00;;;;10435046;28;46541;-64
2021/11/05 17:59:32;;;;;;;8.55;4.55;;;20.00;33.70;20.50;94638.00;;;;10465603;28;47242;-62
2021/11/05 18:04:35;;;;;;;9.18;3.40;;;20.10;34.30;20.60;94641.00;;;;10474378;28;46273;-63
2021/11/05 18:09:35;;;;;;;5.95;3.03;;;20.20;34.50;20.60;94647.00;;;;10473997;28;46395;-61
2021/11/05 18:14:36;;;;;;;6.47;2.92;;;20.20;34.60;20.60;94633.00;;;;10474106;28;46286;-61
2021/11/05 18:19:37;;;;;;;6.30;2.80;;;20.20;35.30;20.60;94645.00;;;;10473317;28;45390;-60
2021/11/05 18:24:38;;;;;;;5.28;2.67;;;20.20;34.70;20.60;94655.00;;;;10410992;28;46155;-61
2021/11/05 18:29:38;;;;;;;4.93;2.35;;;20.20;34.80;20.60;94660.00;;;;10391627;28;46448;-60
2021/11/05 18:34:39;;;;;;;3.75;1.90;;;20.20;34.90;20.60;94646.00;;;;10401879;28;45303;-61
2021/11/05 18:39:40;;;;;;;3.92;2.13;;;20.20;35.20;20.60;94656.00;;;;10465873;28;46399;-62
2021/11/05 18:44:41;;;;;;;2.90;1.83;;;20.20;35.20;20.60;94648.00;;;;10481951;28;45498;-63
2021/11/05 18:49:42;;;;;;;2.65;1.80;;;20.20;35.30;20.70;94658.00;;;;10456003;28;46510;-62
2021/11/05 18:54:43;;;;;;;2.55;1.52;;;20.30;35.50;20.70;94658.00;;;;10420608;28;47825;-63
2021/11/05 18:59:44;;;;;;;2.90;1.45;;;20.30;35.60;20.70;94654.00;;;;10436976;28;46055;-63
2021/11/05 19:04:44;;;;;;;1.85;1.15;;;20.30;35.70;20.70;94672.00;;;;10418978;28;47980;-63
2021/11/05 19:09:45;;;;;;;2.35;1.25;;;20.30;35.70;20.70;94662.00;;;;10435658;28;45412;-62
2021/11/05 19:14:46;;;;;;;5.38;1.60;;;20.30;36.40;20.80;94698.00;;;;10421880;28;45280;-63
2021/11/05 19:19:46;;;;;;;1.50;1.17;;;20.40;36.10;20.80;94688.00;;;;10394234;28;47987;-61
2021/11/05 19:24:47;;;;;;;2.42;1.40;;;20.40;35.60;20.70;94711.00;;;;10394784;28;45302;-62
2021/11/05 19:29:48;;;;;;;2.00;1.30;;;20.30;35.40;20.70;94701.00;;;;10394600;28;45341;-61
2021/11/05 19:34:49;;;;;;;1.60;1.10;;;20.30;35.30;20.70;94701.00;;;;10396388;28;46769;-62
2021/11/05 19:39:49;;;;;;;1.77;1.27;;;20.30;35.30;20.70;94716.00;;;;10394061;28;45941;-61
2021/11/05 19:44:50;;;;;;;1.75;1.20;;;20.30;35.20;20.70;94711.00;;;;10394357;28;46550;-62
2021/11/05 19:49:53;;;;;;;1.88;1.00;;;20.20;35.20;20.60;94730.00;;;;10401414;28;47044;-61
2021/11/05 19:54:54;;;;;;;1.63;1.10;;;20.20;35.10;20.60;94730.00;;;;10436104;28;48085;-61
2021/11/05 19:59:55;;;;;;;2.30;1.00;;;20.20;35.20;20.60;94733.00;;;;10436523;28;45196;-61
2021/11/05 20:04:56;;;;;;;1.13;0.90;;;20.20;35.10;20.70;94740.00;;;;10436649;28;45293;-61
2021/11/05 20:09:57;;;;;;;1.23;0.80;;;20.20;35.20;20.70;94743.00;;;;10436430;28;46117;-61
2021/11/05 20:14:57;;;;;;;1.65;0.88;;;20.20;35.10;20.60;94747.00;;;;10451553;28;47306;-62
2021/11/05 20:19:59;;;;;;;1.98;1.00;;;20.20;35.10;20.60;94746.00;;;;10435211;28;47153;-61
2021/11/05 20:25:00;;;;;;;1.45;1.00;;;20.20;35.00;20.60;94762.00;;;;10395969;28;45385;-61
2021/11/05 20:30:03;;;;;;;1.45;0.90;;;20.20;35.00;20.60;94762.00;;;;10393449;28;45241;-61
2021/11/05 20:35:06;;;;;;;1.75;1.08;;;20.20;35.00;20.60;94753.00;;;;10376631;28;47951;-61
2021/11/05 20:40:08;;;;;;;1.10;0.82;;;20.20;34.90;20.60;94749.00;;;;10392942;28;47059;-61
2021/11/05 20:45:12;;;;;;;1.13;0.90;;;20.20;34.80;20.60;94770.00;;;;10392762;28;47358;-61
2021/11/05 20:50:15;;;;;;;0.93;0.80;;;20.10;34.80;20.50;94781.00;;;;10419328;28;47833;-61
2021/11/05 20:55:16;;;;;;;0.75;0.70;;;20.20;34.80;20.60;94772.00;;;;10432721;28;45405;-61
2021/11/05 21:00:18;;;;;;;0.73;0.60;;;20.20;34.80;20.60;94760.00;;;;10433335;28;45468;-61
2021/11/05 21:05:20;;;;;;;0.80;0.50;;;20.10;34.70;20.60;94791.00;;;;10372517;28;47035;-61
2021/11/05 21:10:21;;;;;;;1.02;0.73;;;20.20;34.90;20.60;94806.00;;;;10430691;28;45418;-61
2021/11/05 21:15:23;;;;;;;1.13;0.70;;;20.20;34.80;20.60;94791.00;;;;10432516;28;45250;-61
2021/11/05 21:20:25;;;;;;;0.95;0.55;;;20.20;34.70;20.60;94800.00;;;;10431103;28;45185;-61
2021/11/05 21:25:27;;;;;;;0.60;0.47;;;20.20;34.60;20.60;94797.00;;;;10391253;28;45335;-61
2021/11/05 21:30:29;;;;;;;1.25;0.60;;;20.20;34.60;20.60;94786.00;;;;10392688;28;45340;-61
2021/11/05 21:35:30;;;;;;;0.50;0.50;;;20.20;34.50;20.60;94784.00;;;;10390712;28;45303;-61
2021/11/05 21:40:31;;;;;;;0.90;0.68;;;20.10;34.40;20.50;94804.00;;;;10391441;28;45533;-61
2021/11/05 21:45:32;;;;;;;0.70;0.55;;;20.10;34.40;20.50;94801.00;;;;10391496;28;47378;-61
2021/11/05 21:50:34;;;;;;;1.05;0.52;;;20.10;34.40;20.50;94797.00;;;;10419423;28;47641;-61
2021/11/05 21:55:35;;;;;;;0.55;0.50;;;20.10;34.40;20.50;94806.00;;;;10432060;28;45631;-61
2021/11/05 22:00:36;;;;;;;0.90;0.70;;;20.10;34.30;20.50;94811.00;;;;10431962;28;46514;-61
2021/11/05 22:05:37;;;;;;;0.40;0.40;;;20.10;34.30;20.50;94811.00;;;;10427740;28;46796;-61
2021/11/05 22:10:38;;;;;;;1.20;0.70;;;20.10;34.30;20.50;94784.00;;;;10429451;28;46396;-61
2021/11/05 22:15:38;;;;;;;1.08;0.40;;;20.10;34.20;20.50;94806.00;;;;10432087;28;45135;-61